Time;durP1;ratioP1;P1;durP2;ratioP2;P2;SDS_P1;SDS_P2;PMS_P1;PMS_P2;Temp;Humidity;BMP_temperature;BMP_pressure;BME280_temperature;BME280_humidity;BME280_pressure;Samples;Min_cycle;Max_cycle;Signal;HPM_P1;HPM_P2
2023/03/10 00:01:13;;;;;;;8.43;4.38;;;;;;;;;;4989333;28;20039;-74
2023/03/10 00:03:39;;;;;;;7.40;3.88;;;;;;;;;;4986547;28;20049;-73
2023/03/10 00:06:05;;;;;;;6.72;3.88;;;;;;;;;;4984201;28;20042;-74
2023/03/10 00:08:31;;;;;;;6.20;3.67;;;;;;;;;;4990656;28;20038;-74
2023/03/10 00:10:56;;;;;;;7.32;3.15;;;;;;;;;;4989999;28;20031;-74
2023/03/10 00:13:21;;;;;;;10.18;3.90;;;;;;;;;;4983472;28;20046;-74
2023/03/10 00:15:47;;;;;;;4.85;2.85;;;;;;;;;;4978261;28;20042;-74
2023/03/10 00:18:13;;;;;;;6.35;3.63;;;;;;;;;;4976137;28;20122;-73
2023/03/10 00:20:38;;;;;;;6.68;3.95;;;;;;;;;;4980210;28;20100;-74
2023/03/10 00:23:04;;;;;;;6.22;3.75;;;;;;;;;;4992486;28;20124;-73
2023/03/10 00:25:29;;;;;;;7.68;3.63;;;;;;;;;;4983567;28;20031;-74
2023/03/10 00:27:54;;;;;;;7.03;3.63;;;;;;;;;;4987420;28;20118;-74
2023/03/10 00:30:20;;;;;;;6.18;3.92;;;;;;;;;;4987570;28;20035;-73
2023/03/10 00:32:45;;;;;;;7.38;4.05;;;;;;;;;;4982884;28;20022;-74
2023/03/10 00:35:11;;;;;;;5.50;3.40;;;;;;;;;;4993548;28;20049;-73
2023/03/10 00:37:37;;;;;;;7.10;3.97;;;;;;;;;;4993847;28;20056;-73
2023/03/10 00:40:06;;;;;;;5.63;3.20;;;;;;;;;;4987676;28;20027;-74
2023/03/10 00:42:31;;;;;;;9.23;4.35;;;;;;;;;;4979703;28;20035;-73
2023/03/10 00:44:57;;;;;;;4.80;3.08;;;;;;;;;;4974709;28;20042;-74
2023/03/10 00:47:22;;;;;;;7.38;4.07;;;;;;;;;;4985100;28;20094;-73
2023/03/10 00:49:47;;;;;;;6.07;3.65;;;;;;;;;;4977493;28;20043;-73
2023/03/10 00:52:13;;;;;;;7.63;4.25;;;;;;;;;;4987317;28;20046;-73
2023/03/10 00:54:40;;;;;;;5.25;2.95;;;;;;;;;;4984082;28;20084;-73
2023/03/10 00:57:06;;;;;;;6.10;3.35;;;;;;;;;;4989802;28;20053;-73
2023/03/10 00:59:31;;;;;;;6.18;2.92;;;;;;;;;;4992403;28;20034;-73
2023/03/10 01:01:57;;;;;;;4.50;3.10;;;;;;;;;;4993352;28;20394;-74
2023/03/10 01:04:22;;;;;;;5.80;3.33;;;;;;;;;;4993435;28;20060;-73
2023/03/10 01:06:47;;;;;;;5.38;3.08;;;;;;;;;;4993639;28;20136;-74
2023/03/10 01:09:13;;;;;;;4.28;2.85;;;;;;;;;;4993478;28;20070;-73
2023/03/10 01:11:39;;;;;;;5.60;2.90;;;;;;;;;;4993375;28;20030;-73
2023/03/10 01:14:06;;;;;;;5.47;3.00;;;;;;;;;;5008268;28;20042;-73
2023/03/10 01:16:31;;;;;;;5.00;3.03;;;;;;;;;;4992298;28;20121;-73
2023/03/10 01:18:57;;;;;;;3.83;2.53;;;;;;;;;;4993205;28;20449;-74
2023/03/10 01:21:26;;;;;;;4.22;2.65;;;;;;;;;;4982281;28;20122;-73
2023/03/10 01:23:52;;;;;;;4.93;2.88;;;;;;;;;;4993589;28;20033;-74
2023/03/10 01:26:18;;;;;;;4.45;2.75;;;;;;;;;;4993283;28;20109;-74
2023/03/10 01:28:44;;;;;;;4.68;3.17;;;;;;;;;;4992183;28;20046;-74
2023/03/10 01:31:10;;;;;;;4.88;2.90;;;;;;;;;;4996798;28;20027;-73
2023/03/10 01:33:40;;;;;;;4.35;2.75;;;;;;;;;;5011610;28;20562;-73
2023/03/10 01:36:08;;;;;;;3.40;2.42;;;;;;;;;;4996636;28;20042;-73
2023/03/10 01:38:33;;;;;;;5.30;2.97;;;;;;;;;;5011828;28;20438;-73
2023/03/10 01:40:59;;;;;;;5.28;2.60;;;;;;;;;;4994829;28;20125;-73
2023/03/10 01:43:41;;;;;;;5.53;2.75;;;;;;;;;;4996825;28;20073;-73
2023/03/10 01:46:25;;;;;;;4.55;2.63;;;;;;;;;;4996393;28;20038;-74
2023/03/10 01:48:51;;;;;;;4.57;2.60;;;;;;;;;;4993750;28;20053;-74
2023/03/10 01:51:17;;;;;;;4.18;2.60;;;;;;;;;;5011413;28;20030;-73
2023/03/10 01:53:42;;;;;;;3.47;2.08;;;;;;;;;;4988594;28;20054;-73
2023/03/10 01:56:08;;;;;;;6.00;2.47;;;;;;;;;;5011380;28;20035;-74
2023/03/10 01:58:39;;;;;;;4.53;2.58;;;;;;;;;;4989529;28;20057;-73
2023/03/10 02:01:05;;;;;;;3.90;2.22;;;;;;;;;;4996047;28;20383;-73
2023/03/10 02:03:49;;;;;;;3.88;2.10;;;;;;;;;;4991345;28;20073;-73
2023/03/10 02:06:18;;;;;;;2.50;1.53;;;;;;;;;;4983272;28;20042;-73
2023/03/10 02:08:50;;;;;;;3.45;1.95;;;;;;;;;;5011223;28;20058;-73
2023/03/10 02:11:16;;;;;;;3.25;1.98;;;;;;;;;;4988779;28;20513;-74
2023/03/10 02:13:41;;;;;;;3.13;1.73;;;;;;;;;;5011180;28;20037;-74
2023/03/10 02:16:07;;;;;;;3.85;1.80;;;;;;;;;;4995983;28;20030;-73
2023/03/10 02:18:32;;;;;;;5.95;2.08;;;;;;;;;;4995962;28;20467;-73
2023/03/10 02:21:20;;;;;;;2.75;1.42;;;;;;;;;;4995738;28;20053;-73
2023/03/10 02:23:54;;;;;;;2.90;1.80;;;;;;;;;;4995995;28;20166;-73
2023/03/10 02:26:59;;;;;;;2.40;1.45;;;;;;;;;;4994266;28;20033;-73
2023/03/10 02:29:42;;;;;;;2.60;1.60;;;;;;;;;;4986770;28;20054;-73
2023/03/10 02:32:07;;;;;;;2.08;1.23;;;;;;;;;;4991771;28;20041;-73
2023/03/10 02:34:33;;;;;;;1.90;1.00;;;;;;;;;;5010785;28;20398;-73
2023/03/10 02:36:58;;;;;;;2.00;1.13;;;;;;;;;;4987926;28;20467;-73
2023/03/10 02:39:24;;;;;;;3.00;1.50;;;;;;;;;;4995911;28;20022;-73
2023/03/10 02:41:49;;;;;;;2.40;1.40;;;;;;;;;;4994689;28;20053;-74
2023/03/10 02:44:17;;;;;;;1.98;1.13;;;;;;;;;;4988524;28;20026;-73
2023/03/10 02:46:43;;;;;;;2.28;1.25;;;;;;;;;;5007970;28;20583;-74
2023/03/10 02:49:12;;;;;;;2.25;1.20;;;;;;;;;;4994149;28;20041;-73
2023/03/10 02:51:42;;;;;;;1.92;1.10;;;;;;;;;;4986159;28;20040;-74
2023/03/10 02:54:08;;;;;;;1.85;1.10;;;;;;;;;;4992615;28;20057;-73
2023/03/10 02:56:34;;;;;;;2.00;1.27;;;;;;;;;;4995383;28;20035;-73
2023/03/10 02:59:01;;;;;;;2.92;1.58;;;;;;;;;;4993510;28;20380;-73
2023/03/10 03:01:28;;;;;;;2.53;1.50;;;;;;;;;;4994818;28;20038;-74
2023/03/10 03:03:54;;;;;;;1.98;1.25;;;;;;;;;;4994490;28;20486;-73
2023/03/10 03:06:20;;;;;;;2.17;1.40;;;;;;;;;;5010416;28;20034;-73
2023/03/10 03:08:45;;;;;;;3.17;1.73;;;;;;;;;;4994952;28;20415;-73
2023/03/10 03:11:11;;;;;;;1.88;1.13;;;;;;;;;;4987092;28;20513;-73
2023/03/10 03:13:37;;;;;;;2.05;1.25;;;;;;;;;;4990774;28;20117;-73
2023/03/10 03:16:05;;;;;;;2.10;1.35;;;;;;;;;;4984581;28;20122;-73
2023/03/10 03:18:30;;;;;;;3.58;1.80;;;;;;;;;;5006017;28;20056;-73
2023/03/10 03:20:56;;;;;;;1.75;1.10;;;;;;;;;;4994817;28;20033;-73
2023/03/10 03:23:21;;;;;;;2.30;1.40;;;;;;;;;;4979531;28;20109;-73
2023/03/10 03:25:47;;;;;;;2.30;1.30;;;;;;;;;;4990030;28;20047;-74
2023/03/10 03:28:12;;;;;;;1.85;1.08;;;;;;;;;;4994344;28;20038;-73
2023/03/10 03:30:39;;;;;;;2.80;1.60;;;;;;;;;;4994643;28;20030;-74
2023/03/10 03:33:05;;;;;;;3.00;1.70;;;;;;;;;;4993202;28;20038;-74
2023/03/10 03:35:33;;;;;;;3.00;1.45;;;;;;;;;;4993272;28;20062;-73
2023/03/10 03:37:59;;;;;;;2.40;1.35;;;;;;;;;;4983450;28;20470;-74
2023/03/10 03:40:26;;;;;;;2.80;1.70;;;;;;;;;;4993185;28;20084;-73
2023/03/10 03:42:52;;;;;;;2.47;1.58;;;;;;;;;;4994075;28;20026;-73
2023/03/10 03:45:20;;;;;;;2.28;1.35;;;;;;;;;;4987093;28;20039;-74
2023/03/10 03:47:46;;;;;;;11.38;1.50;;;;;;;;;;5008884;28;20034;-74
2023/03/10 03:50:12;;;;;;;3.50;1.60;;;;;;;;;;4991740;28;20042;-74
2023/03/10 03:52:38;;;;;;;2.28;1.40;;;;;;;;;;4990321;28;20479;-74
2023/03/10 03:55:05;;;;;;;2.60;1.42;;;;;;;;;;4980307;28;20048;-74
2023/03/10 03:57:30;;;;;;;2.13;1.23;;;;;;;;;;4983714;28;20113;-74
2023/03/10 03:59:56;;;;;;;2.28;1.35;;;;;;;;;;4985303;28;20113;-74
2023/03/10 04:02:21;;;;;;;2.17;1.35;;;;;;;;;;4984210;28;20471;-74
2023/03/10 04:04:47;;;;;;;2.00;1.17;;;;;;;;;;4992518;28;20018;-73
2023/03/10 04:07:12;;;;;;;2.30;1.30;;;;;;;;;;4994096;28;20038;-73
2023/03/10 04:09:39;;;;;;;2.47;1.23;;;;;;;;;;4994041;28;20038;-74
2023/03/10 04:12:06;;;;;;;2.00;1.20;;;;;;;;;;4992699;28;20067;-74
2023/03/10 04:14:32;;;;;;;2.45;1.20;;;;;;;;;;4986599;28;20042;-73
2023/03/10 04:16:57;;;;;;;2.28;1.08;;;;;;;;;;5008693;28;20566;-74
2023/03/10 04:19:23;;;;;;;2.22;1.20;;;;;;;;;;4991942;28;20113;-73
2023/03/10 04:21:48;;;;;;;2.00;1.10;;;;;;;;;;5009045;28;20034;-73
2023/03/10 04:24:14;;;;;;;1.83;1.00;;;;;;;;;;4993885;28;20529;-73
2023/03/10 04:26:39;;;;;;;2.28;1.25;;;;;;;;;;4993743;28;20030;-74
2023/03/10 04:29:05;;;;;;;2.40;1.17;;;;;;;;;;4993869;28;20073;-73
2023/03/10 04:31:30;;;;;;;1.90;1.15;;;;;;;;;;4994069;28;20546;-74
2023/03/10 04:33:56;;;;;;;2.55;1.30;;;;;;;;;;4991129;28;20034;-73
2023/03/10 04:36:21;;;;;;;6.38;1.30;;;;;;;;;;4992638;28;20045;-73
2023/03/10 04:38:47;;;;;;;2.08;1.25;;;;;;;;;;4992318;28;20038;-73
2023/03/10 04:41:13;;;;;;;2.67;1.33;;;;;;;;;;4993352;28;20311;-73
2023/03/10 04:43:38;;;;;;;2.50;1.40;;;;;;;;;;4993776;28;20030;-73
2023/03/10 04:46:04;;;;;;;2.55;1.20;;;;;;;;;;4990799;28;20239;-73
2023/03/10 04:48:30;;;;;;;3.10;1.63;;;;;;;;;;4993667;28;20026;-73
2023/03/10 04:50:57;;;;;;;2.45;1.30;;;;;;;;;;4993463;28;20026;-73
2023/03/10 04:53:22;;;;;;;2.63;1.65;;;;;;;;;;4992331;28;20133;-73
2023/03/10 04:55:50;;;;;;;2.60;1.40;;;;;;;;;;4993502;28;20439;-73
2023/03/10 04:58:17;;;;;;;3.58;1.90;;;;;;;;;;4993425;28;20092;-73
2023/03/10 05:00:42;;;;;;;2.65;1.55;;;;;;;;;;4971720;28;20462;-73
2023/03/10 05:03:08;;;;;;;3.78;2.13;;;;;;;;;;4993529;28;20117;-73
2023/03/10 05:05:34;;;;;;;2.83;1.65;;;;;;;;;;4996609;28;20036;-73
2023/03/10 05:07:59;;;;;;;2.72;1.45;;;;;;;;;;4997355;28;20061;-74
2023/03/10 05:10:25;;;;;;;2.72;1.48;;;;;;;;;;5007947;28;20065;-73
2023/03/10 05:12:50;;;;;;;2.55;1.50;;;;;;;;;;4981056;28;20062;-73
2023/03/10 05:15:16;;;;;;;2.88;1.60;;;;;;;;;;4981473;28;20140;-73
2023/03/10 05:17:41;;;;;;;2.35;1.45;;;;;;;;;;4997198;28;20080;-74
2023/03/10 05:20:08;;;;;;;2.72;1.48;;;;;;;;;;4993871;28;20035;-74
2023/03/10 05:22:34;;;;;;;2.38;1.40;;;;;;;;;;4985190;28;20042;-73
2023/03/10 05:25:00;;;;;;;2.40;1.33;;;;;;;;;;4988723;28;20058;-73
2023/03/10 05:27:25;;;;;;;2.65;1.30;;;;;;;;;;4986746;28;20435;-73
2023/03/10 05:29:51;;;;;;;2.40;1.27;;;;;;;;;;4993862;28;20041;-74
2023/03/10 05:32:16;;;;;;;1.92;1.00;;;;;;;;;;4996957;28;20065;-73
2023/03/10 05:34:42;;;;;;;2.42;1.20;;;;;;;;;;4992394;28;20027;-73
2023/03/10 05:37:07;;;;;;;1.88;1.10;;;;;;;;;;4979335;28;20126;-74
2023/03/10 05:39:32;;;;;;;1.60;0.77;;;;;;;;;;4981060;28;20030;-73
2023/03/10 05:41:58;;;;;;;1.50;0.80;;;;;;;;;;4996781;28;20057;-73
2023/03/10 05:44:23;;;;;;;1.40;0.88;;;;;;;;;;4996553;28;20470;-73
2023/03/10 05:46:49;;;;;;;1.48;0.73;;;;;;;;;;4990803;28;20053;-74
2023/03/10 05:49:14;;;;;;;1.50;0.75;;;;;;;;;;4995358;28;20077;-73
2023/03/10 05:51:40;;;;;;;0.98;0.52;;;;;;;;;;4996084;28;20129;-73
2023/03/10 05:54:05;;;;;;;0.77;0.47;;;;;;;;;;4995906;28;20038;-73
2023/03/10 05:56:31;;;;;;;1.05;0.63;;;;;;;;;;4987675;28;20031;-73
2023/03/10 05:58:57;;;;;;;0.77;0.50;;;;;;;;;;4994588;28;20474;-74
2023/03/10 06:01:22;;;;;;;1.17;0.70;;;;;;;;;;4996376;28;20034;-73
2023/03/10 06:03:48;;;;;;;0.60;0.55;;;;;;;;;;5002167;28;20030;-74
2023/03/10 06:06:13;;;;;;;1.17;0.80;;;;;;;;;;4995115;28;20474;-73
2023/03/10 06:08:39;;;;;;;1.08;0.68;;;;;;;;;;4996238;28;20044;-73
2023/03/10 06:11:04;;;;;;;0.50;0.40;;;;;;;;;;4996104;28;20069;-73
2023/03/10 06:13:30;;;;;;;1.00;0.50;;;;;;;;;;4996053;28;20129;-73
2023/03/10 06:15:58;;;;;;;0.85;0.57;;;;;;;;;;4994602;28;20085;-73
2023/03/10 06:18:24;;;;;;;0.82;0.47;;;;;;;;;;4995941;28;20058;-73
2023/03/10 06:20:52;;;;;;;0.82;0.50;;;;;;;;;;4984742;28;20042;-74
2023/03/10 06:23:18;;;;;;;0.40;0.40;;;;;;;;;;5010898;28;20034;-73
2023/03/10 06:25:44;;;;;;;0.77;0.47;;;;;;;;;;4992941;28;20034;-73
2023/03/10 06:28:10;;;;;;;1.55;0.52;;;;;;;;;;4994677;28;20038;-73
2023/03/10 06:30:35;;;;;;;0.82;0.50;;;;;;;;;;4991144;28;20035;-73
2023/03/10 06:33:01;;;;;;;0.52;0.43;;;;;;;;;;4980638;28;20111;-73
2023/03/10 06:35:27;;;;;;;0.63;0.38;;;;;;;;;;4985385;28;20117;-74
2023/03/10 06:37:53;;;;;;;0.35;0.35;;;;;;;;;;4994383;28;20073;-74
2023/03/10 06:40:18;;;;;;;2.42;0.57;;;;;;;;;;4988241;28;20442;-73
2023/03/10 06:42:44;;;;;;;1.25;0.70;;;;;;;;;;4986286;28;20170;-74
2023/03/10 06:45:13;;;;;;;0.47;0.30;;;;;;;;;;4991765;28;20117;-73
2023/03/10 06:47:38;;;;;;;0.75;0.47;;;;;;;;;;4993969;28;20510;-74
2023/03/10 06:50:05;;;;;;;0.73;0.57;;;;;;;;;;4995203;28;20058;-73
2023/03/10 06:52:33;;;;;;;0.50;0.40;;;;;;;;;;4993357;28;20054;-73
2023/03/10 06:54:59;;;;;;;0.55;0.35;;;;;;;;;;4981061;28;20383;-74
2023/03/10 06:57:24;;;;;;;1.20;0.73;;;;;;;;;;4995157;28;20495;-73
2023/03/10 06:59:49;;;;;;;0.57;0.52;;;;;;;;;;4995115;28;20030;-73
2023/03/10 07:02:15;;;;;;;0.75;0.45;;;;;;;;;;4995203;28;20038;-73
2023/03/10 07:04:40;;;;;;;0.47;0.43;;;;;;;;;;4995010;28;20053;-73
2023/03/10 07:07:06;;;;;;;0.52;0.50;;;;;;;;;;4995143;28;20422;-73
2023/03/10 07:09:31;;;;;;;0.75;0.52;;;;;;;;;;4995068;28;20036;-73
2023/03/10 07:11:57;;;;;;;0.73;0.52;;;;;;;;;;4995286;28;20394;-73
2023/03/10 07:14:22;;;;;;;2.17;0.88;;;;;;;;;;4994487;28;20034;-73
2023/03/10 07:16:48;;;;;;;0.52;0.50;;;;;;;;;;4994963;28;20026;-73
2023/03/10 07:19:13;;;;;;;0.98;0.63;;;;;;;;;;4994829;28;20081;-74
2023/03/10 07:21:38;;;;;;;1.15;0.77;;;;;;;;;;4994523;28;20494;-73
2023/03/10 07:24:04;;;;;;;1.33;0.82;;;;;;;;;;4994844;28;20064;-74
2023/03/10 07:26:30;;;;;;;3.47;0.70;;;;;;;;;;4994741;28;20403;-73
2023/03/10 07:28:55;;;;;;;1.15;0.73;;;;;;;;;;4994386;28;20080;-73
2023/03/10 07:31:21;;;;;;;1.80;1.00;;;;;;;;;;4991037;28;20041;-73
2023/03/10 07:33:48;;;;;;;1.35;0.73;;;;;;;;;;5009647;28;20041;-73
2023/03/10 07:36:15;;;;;;;0.80;0.52;;;;;;;;;;4985020;28;20046;-73
2023/03/10 07:38:41;;;;;;;1.38;0.80;;;;;;;;;;5009854;28;20041;-73
2023/03/10 07:41:08;;;;;;;1.67;0.75;;;;;;;;;;4978850;28;20042;-73
2023/03/10 07:43:33;;;;;;;1.58;1.00;;;;;;;;;;4999788;28;20474;-73
2023/03/10 07:45:58;;;;;;;1.75;1.10;;;;;;;;;;4977814;28;20033;-73
2023/03/10 07:48:24;;;;;;;1.83;1.10;;;;;;;;;;4985352;28;20042;-73
2023/03/10 07:50:56;;;;;;;1.88;1.02;;;;;;;;;;4978236;28;20356;-73
2023/03/10 07:53:22;;;;;;;2.30;0.90;;;;;;;;;;4986552;28;20505;-73
2023/03/10 07:55:47;;;;;;;3.38;1.00;;;;;;;;;;4976785;28;20034;-74
2023/03/10 07:58:13;;;;;;;3.55;1.10;;;;;;;;;;4987413;28;20031;-73
2023/03/10 08:00:38;;;;;;;1.13;0.80;;;;;;;;;;4981190;28;20018;-73
2023/03/10 08:03:04;;;;;;;2.35;1.23;;;;;;;;;;4981445;28;20058;-73
2023/03/10 08:05:30;;;;;;;3.33;1.00;;;;;;;;;;4975608;28;20063;-73
2023/03/10 08:07:56;;;;;;;2.60;0.90;;;;;;;;;;4991011;28;20382;-73
2023/03/10 08:10:22;;;;;;;1.58;1.00;;;;;;;;;;4986890;28;20122;-73
2023/03/10 08:12:47;;;;;;;1.65;1.00;;;;;;;;;;4977413;28;20026;-73
2023/03/10 08:15:13;;;;;;;7.63;1.10;;;;;;;;;;4980907;28;20470;-73
2023/03/10 08:17:39;;;;;;;1.60;1.00;;;;;;;;;;4993831;28;20057;-73
2023/03/10 08:20:05;;;;;;;2.17;1.17;;;;;;;;;;5009113;28;20033;-73
2023/03/10 08:22:31;;;;;;;1.90;0.80;;;;;;;;;;4993664;28;20058;-73
2023/03/10 08:24:58;;;;;;;1.52;0.90;;;;;;;;;;4993714;28;20367;-73
2023/03/10 08:27:24;;;;;;;1.77;0.90;;;;;;;;;;4985138;28;20026;-74
2023/03/10 08:29:50;;;;;;;2.53;1.30;;;;;;;;;;4987212;28;20066;-73
2023/03/10 08:32:15;;;;;;;1.95;1.00;;;;;;;;;;4988233;28;20113;-73
2023/03/10 08:34:41;;;;;;;1.48;0.85;;;;;;;;;;5002398;28;20034;-73
2023/03/10 08:37:07;;;;;;;3.85;1.40;;;;;;;;;;4993841;28;20116;-73
2023/03/10 08:39:33;;;;;;;4.30;1.10;;;;;;;;;;4995289;28;20495;-73
2023/03/10 08:41:59;;;;;;;2.67;0.88;;;;;;;;;;4984967;28;20027;-74
2023/03/10 08:44:24;;;;;;;2.88;1.15;;;;;;;;;;4981099;28;20379;-74
2023/03/10 08:46:50;;;;;;;4.15;1.00;;;;;;;;;;5000049;28;20485;-74
2023/03/10 08:49:17;;;;;;;2.83;1.05;;;;;;;;;;4997699;28;20022;-74
2023/03/10 08:51:43;;;;;;;4.60;1.00;;;;;;;;;;5012690;28;20038;-73
2023/03/10 08:54:11;;;;;;;1.73;0.88;;;;;;;;;;4997645;28;20049;-73
2023/03/10 08:56:36;;;;;;;3.83;1.10;;;;;;;;;;4984454;28;20522;-73
2023/03/10 08:59:02;;;;;;;1.38;0.80;;;;;;;;;;4985183;28;20066;-74
2023/03/10 09:01:30;;;;;;;2.05;1.30;;;;;;;;;;4995217;28;20049;-74
2023/03/10 09:03:56;;;;;;;1.20;0.73;;;;;;;;;;4996332;28;20018;-74
2023/03/10 09:06:22;;;;;;;2.35;1.00;;;;;;;;;;4996602;28;20027;-74
2023/03/10 09:08:49;;;;;;;4.65;0.95;;;;;;;;;;4985521;28;20149;-74
2023/03/10 09:11:19;;;;;;;1.60;0.68;;;;;;;;;;5005198;28;20066;-74
2023/03/10 09:13:44;;;;;;;2.05;1.00;;;;;;;;;;4979317;28;20468;-74
2023/03/10 09:16:12;;;;;;;2.63;1.00;;;;;;;;;;4997107;28;20049;-74
2023/03/10 09:18:38;;;;;;;1.77;0.80;;;;;;;;;;5012289;28;20134;-74
2023/03/10 09:21:03;;;;;;;1.60;1.00;;;;;;;;;;4997091;28;20038;-74
2023/03/10 09:23:29;;;;;;;1.60;0.90;;;;;;;;;;4987362;28;20169;-73
2023/03/10 09:25:54;;;;;;;2.03;0.90;;;;;;;;;;4997025;28;20022;-74
2023/03/10 09:28:20;;;;;;;1.90;0.85;;;;;;;;;;4996914;28;20045;-74
2023/03/10 09:30:46;;;;;;;1.60;0.80;;;;;;;;;;4997029;28;20030;-74
2023/03/10 09:33:19;;;;;;;1.20;0.80;;;;;;;;;;4996917;28;20036;-74
2023/03/10 09:35:46;;;;;;;0.83;0.60;;;;;;;;;;5000105;28;20066;-74
2023/03/10 09:38:11;;;;;;;2.67;1.00;;;;;;;;;;4999046;28;20055;-74
2023/03/10 09:40:39;;;;;;;1.92;0.93;;;;;;;;;;4999951;28;20045;-74
2023/03/10 09:43:13;;;;;;;4.75;0.80;;;;;;;;;;4981277;28;20062;-74
2023/03/10 09:45:47;;;;;;;5.30;1.00;;;;;;;;;;5004490;28;20109;-74
2023/03/10 09:48:37;;;;;;;1.35;0.80;;;;;;;;;;4986049;28;20094;-74
2023/03/10 09:51:14;;;;;;;1.90;0.80;;;;;;;;;;4989477;28;20085;-74
2023/03/10 09:53:51;;;;;;;1.98;0.80;;;;;;;;;;4988666;28;20129;-74
2023/03/10 09:56:19;;;;;;;1.23;0.70;;;;;;;;;;4996446;28;20135;-74
2023/03/10 09:58:49;;;;;;;1.38;0.80;;;;;;;;;;4996322;28;20069;-74
2023/03/10 10:01:17;;;;;;;1.65;0.90;;;;;;;;;;4995130;28;20393;-74
2023/03/10 10:03:46;;;;;;;1.67;1.05;;;;;;;;;;4990292;28;20359;-74
2023/03/10 10:06:24;;;;;;;1.48;0.80;;;;;;;;;;4996251;28;20053;-74
2023/03/10 10:08:56;;;;;;;1.05;0.68;;;;;;;;;;4985805;28;20367;-74
2023/03/10 10:11:22;;;;;;;3.00;1.10;;;;;;;;;;5005935;28;20046;-74
2023/03/10 10:13:48;;;;;;;1.55;0.93;;;;;;;;;;4995114;28;20517;-74
2023/03/10 10:16:13;;;;;;;2.45;0.88;;;;;;;;;;4994758;28;20064;-74
2023/03/10 10:18:45;;;;;;;2.58;1.00;;;;;;;;;;4995689;28;20399;-74
2023/03/10 10:21:15;;;;;;;2.97;1.00;;;;;;;;;;5010641;28;20089;-74
2023/03/10 10:23:49;;;;;;;2.95;1.08;;;;;;;;;;5011004;28;20121;-73
2023/03/10 10:26:19;;;;;;;2.58;1.00;;;;;;;;;;5010214;28;20052;-74
2023/03/10 10:28:54;;;;;;;3.33;1.08;;;;;;;;;;4985331;28;20113;-74
2023/03/10 10:31:22;;;;;;;1.38;0.90;;;;;;;;;;4994605;28;20037;-74
2023/03/10 10:33:51;;;;;;;1.40;1.00;;;;;;;;;;4995488;28;20046;-74
2023/03/10 10:36:17;;;;;;;7.28;0.90;;;;;;;;;;4987115;28;20475;-74
2023/03/10 10:38:48;;;;;;;1.58;0.80;;;;;;;;;;4985368;28;20065;-74
2023/03/10 10:41:24;;;;;;;2.15;1.10;;;;;;;;;;4986985;28;20038;-74
2023/03/10 10:43:50;;;;;;;1.60;0.88;;;;;;;;;;4986616;28;20035;-74
2023/03/10 10:46:24;;;;;;;2.03;1.05;;;;;;;;;;4994257;28;20041;-73
2023/03/10 10:49:19;;;;;;;3.53;1.00;;;;;;;;;;4977208;28;20459;-74
2023/03/10 10:52:05;;;;;;;2.33;1.08;;;;;;;;;;4984139;28;20074;-74
2023/03/10 10:54:40;;;;;;;1.92;0.90;;;;;;;;;;4999744;28;20050;-74
2023/03/10 10:57:19;;;;;;;4.35;1.10;;;;;;;;;;4986791;28;20046;-74
2023/03/10 10:59:44;;;;;;;2.78;1.02;;;;;;;;;;4995403;28;20421;-74
2023/03/10 11:02:31;;;;;;;3.10;1.40;;;;;;;;;;4994531;28;20038;-74
2023/03/10 11:05:13;;;;;;;2.95;1.23;;;;;;;;;;4985061;28;20080;-74
2023/03/10 11:07:38;;;;;;;1.85;0.95;;;;;;;;;;4992719;28;20084;-74
2023/03/10 11:10:14;;;;;;;2.92;1.00;;;;;;;;;;4995191;28;20030;-74
2023/03/10 11:12:52;;;;;;;1.40;0.85;;;;;;;;;;4993615;28;20501;-74
2023/03/10 11:15:22;;;;;;;2.72;1.05;;;;;;;;;;4994771;28;20112;-74
2023/03/10 11:18:12;;;;;;;0.90;0.70;;;;;;;;;;4981718;28;20034;-73
2023/03/10 11:20:59;;;;;;;1.42;0.90;;;;;;;;;;5007145;28;20031;-74
2023/03/10 11:23:33;;;;;;;3.30;0.93;;;;;;;;;;4994939;28;20129;-74
2023/03/10 11:26:17;;;;;;;5.55;1.30;;;;;;;;;;4994407;28;20564;-74
2023/03/10 11:29:13;;;;;;;2.10;0.80;;;;;;;;;;4990207;28;20039;-74
2023/03/10 11:31:54;;;;;;;1.85;1.00;;;;;;;;;;4991643;28;20046;-73
2023/03/10 11:34:29;;;;;;;1.90;1.00;;;;;;;;;;4994712;28;20072;-73
2023/03/10 11:37:29;;;;;;;2.42;0.93;;;;;;;;;;4986961;28;20026;-74
2023/03/10 11:40:13;;;;;;;5.35;1.00;;;;;;;;;;4994247;28;20054;-74
2023/03/10 11:42:46;;;;;;;5.18;1.35;;;;;;;;;;4993695;28;20034;-74
2023/03/10 11:45:38;;;;;;;1.53;0.80;;;;;;;;;;4977642;28;20471;-74
2023/03/10 11:48:03;;;;;;;2.25;0.93;;;;;;;;;;4983276;28;20522;-74
2023/03/10 11:50:50;;;;;;;3.38;0.90;;;;;;;;;;4981272;28;20058;-74
2023/03/10 11:53:20;;;;;;;3.13;1.00;;;;;;;;;;4992861;28;20042;-73
2023/03/10 11:55:47;;;;;;;1.80;0.90;;;;;;;;;;4981999;28;20077;-73
2023/03/10 11:58:42;;;;;;;1.00;0.60;;;;;;;;;;4994289;28;20038;-74
2023/03/10 12:01:07;;;;;;;;;;;;;;;;;;4987372;28;20101;-73
2023/03/10 12:03:41;;;;;;;2.45;0.90;;;;;;;;;;4994188;28;19909;-73
2023/03/10 12:06:12;;;;;;;1.38;0.73;;;;;;;;;;5009170;28;20038;-74
2023/03/10 12:08:38;;;;;;;2.08;0.93;;;;;;;;;;4989775;28;20026;-74
2023/03/10 12:11:05;;;;;;;2.50;1.33;;;;;;;;;;5009111;28;20098;-73
2023/03/10 12:13:42;;;;;;;3.40;0.90;;;;;;;;;;4968037;28;20166;-73
2023/03/10 12:16:21;;;;;;;2.70;0.90;;;;;;;;;;4988330;28;20034;-73
2023/03/10 12:18:46;;;;;;;2.33;1.02;;;;;;;;;;4969899;28;20383;-74
2023/03/10 12:21:15;;;;;;;2.47;0.70;;;;;;;;;;4991122;28;20106;-74
2023/03/10 12:23:46;;;;;;;3.03;1.10;;;;;;;;;;4993844;28;20097;-73
2023/03/10 12:26:12;;;;;;;1.70;0.82;;;;;;;;;;4993963;28;20046;-73
2023/03/10 12:28:38;;;;;;;2.85;0.85;;;;;;;;;;4978189;28;20034;-74
2023/03/10 12:31:06;;;;;;;1.80;0.90;;;;;;;;;;4993772;28;20525;-74
2023/03/10 12:33:44;;;;;;;2.85;0.70;;;;;;;;;;4992553;28;20046;-73
2023/03/10 12:36:14;;;;;;;1.45;0.63;;;;;;;;;;4989339;28;20074;-73
2023/03/10 12:38:52;;;;;;;2.53;0.73;;;;;;;;;;4993290;28;20034;-74
2023/03/10 12:41:27;;;;;;;2.38;0.80;;;;;;;;;;4993612;28;20046;-74
2023/03/10 12:44:00;;;;;;;1.83;0.70;;;;;;;;;;4977649;28;20038;-74
2023/03/10 12:46:43;;;;;;;0.90;0.50;;;;;;;;;;4998240;28;20057;-74
2023/03/10 12:49:38;;;;;;;2.95;0.70;;;;;;;;;;4993627;28;20050;-74
2023/03/10 12:52:28;;;;;;;1.15;0.60;;;;;;;;;;4987712;28;20093;-74
2023/03/10 12:55:12;;;;;;;1.88;0.73;;;;;;;;;;4979359;28;20030;-73
2023/03/10 12:57:44;;;;;;;1.60;0.80;;;;;;;;;;4982400;28;20046;-73
2023/03/10 13:00:29;;;;;;;1.90;0.70;;;;;;;;;;4986481;28;20125;-74
2023/03/10 13:03:17;;;;;;;2.65;0.52;;;;;;;;;;4980984;28;20046;-74
2023/03/10 13:06:21;;;;;;;1.33;0.60;;;;;;;;;;5008219;28;20490;-74
2023/03/10 13:09:18;;;;;;;3.25;0.80;;;;;;;;;;4982351;28;20046;-74
2023/03/10 13:11:54;;;;;;;2.58;0.75;;;;;;;;;;4992197;28;20069;-74
2023/03/10 13:14:33;;;;;;;1.88;0.70;;;;;;;;;;5008710;28;20066;-74
2023/03/10 13:16:59;;;;;;;3.42;0.80;;;;;;;;;;4991874;28;20073;-74
2023/03/10 13:19:33;;;;;;;2.08;0.75;;;;;;;;;;4993285;28;20042;-74
2023/03/10 13:21:58;;;;;;;1.70;0.60;;;;;;;;;;4984054;28;20491;-74
2023/03/10 13:24:27;;;;;;;0.93;0.60;;;;;;;;;;4993215;28;20068;-74
2023/03/10 13:27:20;;;;;;;0.95;0.65;;;;;;;;;;4991891;28;20034;-74
2023/03/10 13:29:54;;;;;;;1.35;0.75;;;;;;;;;;4993982;28;20042;-74
2023/03/10 13:32:20;;;;;;;2.22;0.90;;;;;;;;;;4986238;28;20105;-74
2023/03/10 13:34:45;;;;;;;3.42;0.65;;;;;;;;;;5011799;28;20467;-74
2023/03/10 13:37:11;;;;;;;1.58;0.70;;;;;;;;;;4982778;28;20070;-74
2023/03/10 13:39:37;;;;;;;0.85;0.55;;;;;;;;;;4994960;28;20109;-74
2023/03/10 13:42:12;;;;;;;2.85;0.70;;;;;;;;;;5011843;28;20045;-74
2023/03/10 13:44:40;;;;;;;1.15;0.70;;;;;;;;;;5011452;28;20470;-74
2023/03/10 13:47:15;;;;;;;1.33;0.55;;;;;;;;;;5008088;28;20038;-74
2023/03/10 13:49:47;;;;;;;2.30;0.85;;;;;;;;;;4994066;28;20035;-74
2023/03/10 13:52:20;;;;;;;0.80;0.52;;;;;;;;;;4988702;28;20050;-73
2023/03/10 13:54:45;;;;;;;1.42;0.70;;;;;;;;;;5011393;28;20034;-74
2023/03/10 13:57:26;;;;;;;1.27;0.77;;;;;;;;;;4995418;28;20042;-74
2023/03/10 13:59:53;;;;;;;1.30;1.02;;;;;;;;;;4995899;28;20049;-74
2023/03/10 14:02:27;;;;;;;2.13;0.70;;;;;;;;;;4995105;28;20045;-74
2023/03/10 14:04:53;;;;;;;1.58;0.70;;;;;;;;;;5011387;28;20035;-74
2023/03/10 14:07:26;;;;;;;1.45;0.68;;;;;;;;;;4994991;28;20085;-74
2023/03/10 14:10:04;;;;;;;1.13;0.70;;;;;;;;;;4988681;28;20042;-74
2023/03/10 14:12:49;;;;;;;1.73;0.80;;;;;;;;;;4996006;28;20565;-74
2023/03/10 14:15:17;;;;;;;2.03;0.70;;;;;;;;;;4996078;28;20046;-74
2023/03/10 14:17:51;;;;;;;1.25;0.60;;;;;;;;;;4995985;28;20042;-74
2023/03/10 14:20:28;;;;;;;0.93;0.50;;;;;;;;;;5011190;28;20042;-74
2023/03/10 14:22:54;;;;;;;1.98;0.68;;;;;;;;;;4994428;28;20395;-74
2023/03/10 14:25:21;;;;;;;1.45;0.60;;;;;;;;;;4983387;28;20043;-74
2023/03/10 14:27:56;;;;;;;0.73;0.50;;;;;;;;;;4994784;28;20054;-74
2023/03/10 14:30:27;;;;;;;1.35;0.57;;;;;;;;;;4993676;28;20045;-74
2023/03/10 14:32:53;;;;;;;2.72;0.60;;;;;;;;;;5002263;28;20150;-74
2023/03/10 14:35:20;;;;;;;0.55;0.45;;;;;;;;;;5010704;28;20081;-74
2023/03/10 14:37:47;;;;;;;0.43;0.40;;;;;;;;;;4994595;28;20506;-74
2023/03/10 14:40:12;;;;;;;0.82;0.50;;;;;;;;;;4978956;28;20035;-74
2023/03/10 14:42:39;;;;;;;1.20;0.60;;;;;;;;;;4989084;28;20041;-74
2023/03/10 14:45:27;;;;;;;2.67;0.70;;;;;;;;;;5010377;28;20490;-74
2023/03/10 14:47:54;;;;;;;1.10;0.60;;;;;;;;;;4987686;28;20054;-74
2023/03/10 14:50:22;;;;;;;0.60;0.40;;;;;;;;;;4990829;28;20030;-74
2023/03/10 14:52:47;;;;;;;0.73;0.52;;;;;;;;;;5007669;28;20042;-73
2023/03/10 14:55:13;;;;;;;1.45;0.60;;;;;;;;;;4995261;28;20046;-74